Time;durP1;ratioP1;P1;durP2;ratioP2;P2;SDS_P1;SDS_P2;PMS_P1;PMS_P2;Temp;Humidity;BMP_temperature;BMP_pressure;BME280_temperature;BME280_humidity;BME280_pressure;Samples;Min_cycle;Max_cycle;Signal;HPM_P1;HPM_P2
2022/02/19 00:03:56;;;;;;;24.57;9.97;;;;;;;;;;10451743;28;20036;-74
2022/02/19 00:08:57;;;;;;;24.10;10.35;;;;;;;;;;10452314;28;20021;-72
2022/02/19 00:13:57;;;;;;;25.38;10.23;;;;;;;;;;10452179;28;20405;-72
2022/02/19 00:18:57;;;;;;;20.27;10.60;;;;;;;;;;10451885;28;20655;-78
2022/02/19 00:23:58;;;;;;;22.75;10.93;;;;;;;;;;10451895;28;20509;-73
2022/02/19 00:28:58;;;;;;;23.40;9.73;;;;;;;;;;10451450;28;20033;-73
2022/02/19 00:33:58;;;;;;;21.27;9.35;;;;;;;;;;10450918;28;20520;-74
2022/02/19 00:38:59;;;;;;;20.40;9.55;;;;;;;;;;10451133;28;20495;-74
2022/02/19 00:43:59;;;;;;;20.27;8.60;;;;;;;;;;10450796;28;20087;-74
2022/02/19 00:49:01;;;;;;;18.07;8.43;;;;;;;;;;10449017;28;20021;-77
2022/02/19 00:54:02;;;;;;;20.90;9.02;;;;;;;;;;10451436;28;20104;-73
2022/02/19 00:59:02;;;;;;;18.38;8.60;;;;;;;;;;10450234;28;20501;-74
2022/02/19 01:04:02;;;;;;;18.87;8.47;;;;;;;;;;10448960;28;20381;-78
2022/02/19 01:09:03;;;;;;;14.38;7.80;;;;;;;;;;10450612;28;20317;-74
2022/02/19 01:14:03;;;;;;;21.08;9.10;;;;;;;;;;10449621;28;20016;-74
2022/02/19 01:19:04;;;;;;;19.92;7.20;;;;;;;;;;10450599;28;20021;-74
2022/02/19 01:24:04;;;;;;;14.10;6.22;;;;;;;;;;10450456;28;20028;-73
2022/02/19 01:29:05;;;;;;;26.73;6.65;;;;;;;;;;10448945;28;20066;-73
2022/02/19 01:34:05;;;;;;;20.42;7.55;;;;;;;;;;10448711;28;20424;-74
2022/02/19 01:39:06;;;;;;;19.15;7.32;;;;;;;;;;10431452;28;20021;-76
2022/02/19 01:44:07;;;;;;;14.10;6.73;;;;;;;;;;10448087;28;20471;-74
2022/02/19 01:49:07;;;;;;;18.27;6.40;;;;;;;;;;10447780;28;20086;-73
2022/02/19 01:54:08;;;;;;;18.77;6.88;;;;;;;;;;10449506;28;20089;-74
2022/02/19 01:59:09;;;;;;;27.00;9.77;;;;;;;;;;10446977;28;20036;-73
2022/02/19 02:04:10;;;;;;;15.20;6.30;;;;;;;;;;10448690;28;20546;-73
2022/02/19 02:09:10;;;;;;;17.27;6.13;;;;;;;;;;10448465;28;20295;-74
2022/02/19 02:14:10;;;;;;;19.92;6.97;;;;;;;;;;10448397;28;20499;-73
2022/02/19 02:19:11;;;;;;;18.90;6.77;;;;;;;;;;10447486;28;20021;-76
2022/02/19 02:24:11;;;;;;;10.30;4.75;;;;;;;;;;10447289;28;20312;-76
2022/02/19 02:29:12;;;;;;;21.08;6.93;;;;;;;;;;10447424;28;20640;-73
2022/02/19 02:34:12;;;;;;;17.20;7.28;;;;;;;;;;10449652;28;20041;-74
2022/02/19 02:39:13;;;;;;;26.00;7.90;;;;;;;;;;10447285;28;20024;-74
2022/02/19 02:44:13;;;;;;;24.60;7.57;;;;;;;;;;10446325;28;20329;-73
2022/02/19 02:49:13;;;;;;;27.50;7.57;;;;;;;;;;10445805;28;20027;-74
2022/02/19 02:54:13;;;;;;;18.25;6.28;;;;;;;;;;10446122;28;20086;-73
2022/02/19 02:59:14;;;;;;;13.13;3.75;;;;;;;;;;10445688;28;20021;-74
2022/02/19 03:04:14;;;;;;;7.70;4.30;;;;;;;;;;10447041;28;20023;-73
2022/02/19 03:09:14;;;;;;;16.65;4.05;;;;;;;;;;10446972;28;20086;-76
2022/02/19 03:14:15;;;;;;;7.73;2.83;;;;;;;;;;10444682;28;20055;-75
2022/02/19 03:19:15;;;;;;;13.53;3.87;;;;;;;;;;10445300;28;20017;-73
2022/02/19 03:24:15;;;;;;;11.57;4.37;;;;;;;;;;10444685;28;20017;-76
2022/02/19 03:29:16;;;;;;;18.90;4.37;;;;;;;;;;10446372;28;20275;-74
2022/02/19 03:34:16;;;;;;;16.67;6.22;;;;;;;;;;10445208;28;20417;-74
2022/02/19 03:39:16;;;;;;;8.68;3.78;;;;;;;;;;10444897;28;20102;-74
2022/02/19 03:44:17;;;;;;;17.80;5.30;;;;;;;;;;10446409;28;20021;-74
2022/02/19 03:49:17;;;;;;;13.45;4.85;;;;;;;;;;10444946;28;20404;-72
2022/02/19 03:54:17;;;;;;;10.35;4.55;;;;;;;;;;10444381;28;20028;-72
2022/02/19 03:59:17;;;;;;;11.52;4.53;;;;;;;;;;10445988;28;20100;-73
2022/02/19 04:04:18;;;;;;;12.18;5.38;;;;;;;;;;10444355;28;20028;-80
2022/02/19 04:09:18;;;;;;;7.50;5.38;;;;;;;;;;10444064;28;20040;-74
2022/02/19 04:14:18;;;;;;;15.32;5.05;;;;;;;;;;10444479;28;20029;-74
2022/02/19 04:19:18;;;;;;;13.70;6.28;;;;;;;;;;10445491;28;20381;-73
2022/02/19 04:24:19;;;;;;;14.85;5.70;;;;;;;;;;10448750;28;20029;-75
2022/02/19 04:29:19;;;;;;;9.80;5.37;;;;;;;;;;10452444;28;20036;-73
2022/02/19 04:34:19;;;;;;;14.02;5.30;;;;;;;;;;10451112;28;20520;-73
2022/02/19 04:39:20;;;;;;;14.02;5.88;;;;;;;;;;10450938;28;20108;-75
2022/02/19 04:44:20;;;;;;;14.95;5.95;;;;;;;;;;10450663;28;20029;-75
2022/02/19 04:49:21;;;;;;;17.70;5.30;;;;;;;;;;10450646;28;20024;-72
2022/02/19 04:54:21;;;;;;;10.55;4.45;;;;;;;;;;10451684;28;20279;-73
2022/02/19 04:59:21;;;;;;;16.17;5.65;;;;;;;;;;10449904;28;20055;-74
2022/02/19 05:04:22;;;;;;;8.93;4.65;;;;;;;;;;10449884;28;20057;-74
2022/02/19 05:09:22;;;;;;;18.70;6.30;;;;;;;;;;10451228;28;20496;-73
2022/02/19 05:14:22;;;;;;;24.48;8.10;;;;;;;;;;10449671;28;20288;-72
2022/02/19 05:19:22;;;;;;;23.90;7.77;;;;;;;;;;10450751;28;20116;-73
2022/02/19 05:24:23;;;;;;;12.70;6.50;;;;;;;;;;10449157;28;20124;-72
2022/02/19 05:29:23;;;;;;;21.55;6.78;;;;;;;;;;10449268;28;20025;-72
2022/02/19 05:34:23;;;;;;;16.40;6.90;;;;;;;;;;10413087;28;20041;-74
2022/02/19 05:39:24;;;;;;;6.85;3.97;;;;;;;;;;10407449;28;20033;-74
2022/02/19 05:44:24;;;;;;;9.07;4.20;;;;;;;;;;10407109;28;20029;-73
2022/02/19 05:49:24;;;;;;;9.93;3.63;;;;;;;;;;10426661;28;20036;-73
2022/02/19 05:54:24;;;;;;;6.97;3.00;;;;;;;;;;10407466;28;20447;-77
2022/02/19 05:59:25;;;;;;;9.85;3.05;;;;;;;;;;10407106;28;20090;-73
2022/02/19 06:04:25;;;;;;;8.38;2.65;;;;;;;;;;10423067;28;20417;-72
2022/02/19 06:09:25;;;;;;;7.03;2.83;;;;;;;;;;10423088;28;20036;-77
2022/02/19 06:14:26;;;;;;;9.63;3.97;;;;;;;;;;10426817;28;20024;-75
2022/02/19 06:19:26;;;;;;;8.80;4.47;;;;;;;;;;10447186;28;20463;-73
2022/02/19 06:24:26;;;;;;;11.00;5.30;;;;;;;;;;10446822;28;20024;-79
2022/02/19 06:29:26;;;;;;;15.15;6.05;;;;;;;;;;10446379;28;20027;-79
2022/02/19 06:34:27;;;;;;;26.60;9.60;;;;;;;;;;10446195;28;20571;-73
2022/02/19 06:39:27;;;;;;;19.83;7.43;;;;;;;;;;10446137;28;20029;-72
2022/02/19 06:44:27;;;;;;;22.23;8.00;;;;;;;;;;10445878;28;20091;-72
2022/02/19 06:49:28;;;;;;;22.08;7.97;;;;;;;;;;10445080;28;20299;-73
2022/02/19 06:54:28;;;;;;;19.25;7.43;;;;;;;;;;10446221;28;20025;-72
2022/02/19 06:59:28;;;;;;;14.23;5.90;;;;;;;;;;10445240;28;20108;-73
2022/02/19 07:04:29;;;;;;;20.17;6.80;;;;;;;;;;10445808;28;20024;-74
2022/02/19 07:09:29;;;;;;;33.03;7.63;;;;;;;;;;10445439;28;20025;-74
2022/02/19 07:14:29;;;;;;;31.30;10.40;;;;;;;;;;10414750;28;21113;-73
2022/02/19 07:19:33;;;;;;;12.98;5.45;;;;;;;;;;10425648;28;20021;-73
2022/02/19 07:24:33;;;;;;;21.17;7.82;;;;;;;;;;10408234;28;20057;-73
2022/02/19 07:29:34;;;;;;;22.27;7.40;;;;;;;;;;10408936;28;20548;-72
2022/02/19 07:34:34;;;;;;;17.40;7.25;;;;;;;;;;10431540;28;20108;-73
2022/02/19 07:39:35;;;;;;;23.37;7.57;;;;;;;;;;10402474;28;20025;-73
2022/02/19 07:44:35;;;;;;;24.10;7.38;;;;;;;;;;10401198;28;20025;-74
2022/02/19 08:00:15;;;;;;;24.88;7.25;;;;;;;;;;10450786;28;20025;-76
2022/02/19 08:05:15;;;;;;;20.25;8.05;;;;;;;;;;10449802;28;20017;-73
2022/02/19 08:10:15;;;;;;;17.35;6.75;;;;;;;;;;10424184;28;20052;-73
2022/02/19 08:15:15;;;;;;;27.65;6.70;;;;;;;;;;10451669;28;20021;-72
2022/02/19 08:20:17;;;;;;;11.55;6.00;;;;;;;;;;10450494;28;20122;-73
2022/02/19 08:25:17;;;;;;;16.02;6.85;;;;;;;;;;10450250;28;20029;-74
2022/02/19 08:30:18;;;;;;;24.27;7.43;;;;;;;;;;10451632;28;20025;-75
2022/02/19 08:35:18;;;;;;;22.00;7.43;;;;;;;;;;10425423;28;20429;-77
2022/02/19 08:40:19;;;;;;;18.55;6.13;;;;;;;;;;10408923;28;20287;-76
2022/02/19 08:45:19;;;;;;;19.60;5.77;;;;;;;;;;10427472;28;20090;-71
2022/02/19 08:50:20;;;;;;;14.10;5.50;;;;;;;;;;10434496;28;20028;-80
2022/02/19 08:55:20;;;;;;;16.33;6.32;;;;;;;;;;10420986;28;20318;-72
2022/02/19 09:00:21;;;;;;;23.13;6.80;;;;;;;;;;10439421;28;20036;-74
2022/02/19 09:05:21;;;;;;;26.42;6.20;;;;;;;;;;10407359;28;20522;-72
2022/02/19 09:10:22;;;;;;;14.50;5.60;;;;;;;;;;10445819;28;20033;-77
2022/02/19 09:15:24;;;;;;;18.58;5.70;;;;;;;;;;10448096;28;20675;-73
2022/02/19 09:20:24;;;;;;;16.48;4.82;;;;;;;;;;10440507;28;20020;-73
2022/02/19 09:25:25;;;;;;;8.68;4.53;;;;;;;;;;10408225;28;20386;-74
2022/02/19 09:30:25;;;;;;;11.63;4.93;;;;;;;;;;10406739;28;20438;-74
2022/02/19 09:35:26;;;;;;;14.05;5.05;;;;;;;;;;10413889;28;20304;-77
2022/02/19 09:40:26;;;;;;;23.85;6.03;;;;;;;;;;10404609;28;20033;-74
2022/02/19 09:45:29;;;;;;;14.00;5.77;;;;;;;;;;10405796;28;20021;-74
2022/02/19 09:50:29;;;;;;;20.67;6.15;;;;;;;;;;10411677;28;20459;-74
2022/02/19 09:55:30;;;;;;;17.58;5.05;;;;;;;;;;10421812;28;20075;-73
2022/02/19 10:00:42;;;;;;;13.48;5.18;;;;;;;;;;10441200;28;20020;-75
2022/02/19 10:05:43;;;;;;;10.30;4.43;;;;;;;;;;10447401;28;20021;-74
2022/02/19 10:10:51;;;;;;;12.88;4.47;;;;;;;;;;10446009;28;20024;-74
2022/02/19 10:15:51;;;;;;;;;;;;;;;;;;10443514;28;20102;-74
2022/02/19 10:20:53;;;;;;;14.20;5.28;;;;;;;;;;10445574;28;19905;-74
2022/02/19 10:26:01;;;;;;;8.20;3.65;;;;;;;;;;10445259;28;20108;-74
2022/02/19 10:31:11;;;;;;;9.05;3.72;;;;;;;;;;10445183;28;20013;-75
2022/02/19 10:36:19;;;;;;;9.20;3.25;;;;;;;;;;10447153;28;20045;-73
2022/02/19 10:41:30;;;;;;;5.03;2.38;;;;;;;;;;10444923;28;20028;-74
2022/02/19 10:46:30;;;;;;;4.43;2.53;;;;;;;;;;10443775;28;20025;-74
2022/02/19 10:51:31;;;;;;;5.88;2.35;;;;;;;;;;10444396;28;20029;-73
2022/02/19 10:56:33;;;;;;;10.30;2.63;;;;;;;;;;10444365;28;20021;-73
2022/02/19 11:01:40;;;;;;;7.20;2.50;;;;;;;;;;10403549;28;20017;-77
2022/02/19 11:06:40;;;;;;;9.75;2.85;;;;;;;;;;10414589;28;20021;-73
2022/02/19 11:11:44;;;;;;;7.43;2.33;;;;;;;;;;10426928;28;20022;-74
2022/02/19 11:16:45;;;;;;;9.52;2.35;;;;;;;;;;10403677;28;20018;-72
2022/02/19 11:21:45;;;;;;;7.13;2.30;;;;;;;;;;10404532;28;20017;-73
2022/02/19 11:26:47;;;;;;;5.38;2.00;;;;;;;;;;10437405;28;20063;-73
2022/02/19 11:31:48;;;;;;;6.55;1.63;;;;;;;;;;10443599;28;20071;-74
2022/02/19 11:36:49;;;;;;;3.50;1.42;;;;;;;;;;10451637;28;20052;-74
2022/02/19 11:41:49;;;;;;;3.85;1.63;;;;;;;;;;10431530;28;20039;-73
2022/02/19 11:46:54;;;;;;;4.45;1.92;;;;;;;;;;10410470;28;20034;-74
2022/02/19 11:52:06;;;;;;;5.05;1.52;;;;;;;;;;10410441;28;20091;-74
2022/02/19 11:57:12;;;;;;;6.28;1.80;;;;;;;;;;10412180;28;20047;-74
2022/02/19 12:02:20;;;;;;;6.43;1.88;;;;;;;;;;10409850;28;20087;-74
2022/02/19 12:07:20;;;;;;;7.63;2.35;;;;;;;;;;10426314;28;20040;-74
2022/02/19 12:12:20;;;;;;;5.47;2.60;;;;;;;;;;10452218;28;20021;-74
2022/02/19 12:17:22;;;;;;;8.55;2.47;;;;;;;;;;10440680;28;20025;-73
2022/02/19 12:22:28;;;;;;;8.45;2.70;;;;;;;;;;10424891;28;20512;-74
2022/02/19 12:27:29;;;;;;;9.75;2.78;;;;;;;;;;10451795;28;20108;-73
2022/02/19 12:32:33;;;;;;;7.07;2.28;;;;;;;;;;10448937;28;20159;-74
2022/02/19 12:37:34;;;;;;;13.32;2.55;;;;;;;;;;10465764;28;20028;-74
2022/02/19 12:42:34;;;;;;;11.68;3.22;;;;;;;;;;10449556;28;20029;-74
2022/02/19 12:47:36;;;;;;;10.40;3.15;;;;;;;;;;10423462;28;20083;-77
2022/02/19 12:52:37;;;;;;;10.10;2.42;;;;;;;;;;10444272;28;20491;-76
2022/02/19 12:57:38;;;;;;;8.05;2.50;;;;;;;;;;10448900;28;20036;-74
2022/02/19 13:02:38;;;;;;;5.20;2.30;;;;;;;;;;10448855;28;20421;-76
2022/02/19 13:07:39;;;;;;;10.90;2.75;;;;;;;;;;10425746;28;20669;-74
2022/02/19 13:12:40;;;;;;;9.65;3.53;;;;;;;;;;10413594;28;20504;-74
2022/02/19 13:17:40;;;;;;;5.57;2.60;;;;;;;;;;10444781;28;20029;-75
2022/02/19 13:22:41;;;;;;;10.27;2.58;;;;;;;;;;10406580;28;20037;-73
2022/02/19 13:27:42;;;;;;;8.90;2.47;;;;;;;;;;10390108;28;20052;-74
2022/02/19 13:32:47;;;;;;;3.38;2.50;;;;;;;;;;10407420;28;20528;-73
2022/02/19 13:37:47;;;;;;;16.15;2.78;;;;;;;;;;10405681;28;20527;-74
2022/02/19 13:42:49;;;;;;;10.32;3.42;;;;;;;;;;10406157;28;20021;-75
2022/02/19 13:47:50;;;;;;;20.33;6.30;;;;;;;;;;10404835;28;20439;-74
2022/02/19 13:52:50;;;;;;;9.38;3.88;;;;;;;;;;10405041;28;20021;-73
2022/02/19 13:57:51;;;;;;;6.67;3.83;;;;;;;;;;10404839;28;20024;-74
2022/02/19 14:02:58;;;;;;;7.63;2.72;;;;;;;;;;10422227;28;20025;-77
2022/02/19 14:07:58;;;;;;;8.00;2.78;;;;;;;;;;10426997;28;20017;-73
2022/02/19 14:13:09;;;;;;;10.10;3.80;;;;;;;;;;10418053;28;20033;-73
2022/02/19 14:18:09;;;;;;;11.48;4.07;;;;;;;;;;10447179;28;20017;-74
2022/02/19 14:23:18;;;;;;;10.55;3.92;;;;;;;;;;10412017;28;20473;-74
2022/02/19 14:28:19;;;;;;;11.30;3.70;;;;;;;;;;10405959;28;20041;-73
2022/02/19 14:33:20;;;;;;;5.82;2.75;;;;;;;;;;10420715;28;20114;-74
2022/02/19 14:38:27;;;;;;;11.35;2.20;;;;;;;;;;10446702;28;20017;-73
2022/02/19 14:43:28;;;;;;;12.20;2.30;;;;;;;;;;10446076;28;20029;-78
2022/02/19 14:48:28;;;;;;;6.55;2.13;;;;;;;;;;10444420;28;20040;-73
2022/02/19 14:53:28;;;;;;;7.95;2.60;;;;;;;;;;10445298;28;20031;-78
2022/02/19 14:58:29;;;;;;;7.07;2.47;;;;;;;;;;10444864;28;20441;-73
2022/02/19 15:03:29;;;;;;;7.67;2.80;;;;;;;;;;10445297;28;20041;-77
2022/02/19 15:08:30;;;;;;;5.33;2.40;;;;;;;;;;10442543;28;20021;-76
2022/02/19 15:13:30;;;;;;;6.23;2.67;;;;;;;;;;10401222;28;20083;-74
2022/02/19 15:18:30;;;;;;;10.98;2.75;;;;;;;;;;10403674;28;20272;-74
2022/02/19 15:23:30;;;;;;;6.90;2.72;;;;;;;;;;10402805;28;20025;-73
2022/02/19 15:28:31;;;;;;;13.17;2.77;;;;;;;;;;10402321;28;20022;-75
2022/02/19 15:33:31;;;;;;;15.65;4.00;;;;;;;;;;10401932;28;20049;-77
2022/02/19 15:38:32;;;;;;;10.33;3.80;;;;;;;;;;10402162;28;20026;-74
2022/02/19 15:43:33;;;;;;;12.40;4.40;;;;;;;;;;10402326;28;20036;-75
2022/02/19 15:48:36;;;;;;;16.40;5.57;;;;;;;;;;10419899;28;20464;-74
2022/02/19 15:53:37;;;;;;;25.05;7.20;;;;;;;;;;10401432;28;20041;-75
2022/02/19 15:58:38;;;;;;;22.17;7.13;;;;;;;;;;10419935;28;20033;-74
2022/02/19 16:03:38;;;;;;;26.10;7.43;;;;;;;;;;10423316;28;20037;-73
2022/02/19 16:08:38;;;;;;;20.43;7.87;;;;;;;;;;10418881;28;20430;-78
2022/02/19 16:13:39;;;;;;;19.70;8.18;;;;;;;;;;10401430;28;20064;-76
2022/02/19 16:18:39;;;;;;;21.13;7.17;;;;;;;;;;10425210;28;20028;-76
2022/02/19 16:23:40;;;;;;;27.75;9.45;;;;;;;;;;10450097;28;20492;-73
2022/02/19 16:28:40;;;;;;;28.27;10.05;;;;;;;;;;10440648;28;20029;-72
2022/02/19 16:33:41;;;;;;;19.57;7.83;;;;;;;;;;10408446;28;20049;-79
2022/02/19 16:38:42;;;;;;;28.65;11.43;;;;;;;;;;10410668;28;20063;-77
2022/02/19 16:43:42;;;;;;;21.63;7.65;;;;;;;;;;10427641;28;20116;-77
2022/02/19 16:48:43;;;;;;;33.53;9.60;;;;;;;;;;10408027;28;20026;-78
2022/02/19 16:53:43;;;;;;;22.90;9.73;;;;;;;;;;10407704;28;20057;-75
2022/02/19 16:58:43;;;;;;;25.15;9.15;;;;;;;;;;10391657;28;20025;-76
2022/02/19 17:03:44;;;;;;;37.50;9.93;;;;;;;;;;10409180;28;20484;-76
2022/02/19 17:08:44;;;;;;;35.42;10.88;;;;;;;;;;10424672;28;20275;-72
2022/02/19 17:13:45;;;;;;;28.30;10.60;;;;;;;;;;10407851;28;20117;-71
2022/02/19 17:18:46;;;;;;;29.45;11.13;;;;;;;;;;10407835;28;20406;-76
2022/02/19 17:23:48;;;;;;;28.90;10.50;;;;;;;;;;10424799;28;20025;-75
2022/02/19 17:28:49;;;;;;;23.25;9.95;;;;;;;;;;10406136;28;20021;-75
2022/02/19 17:33:49;;;;;;;29.33;10.27;;;;;;;;;;10406635;28;20053;-72
2022/02/19 17:38:52;;;;;;;20.52;9.48;;;;;;;;;;10406936;28;20047;-76
2022/02/19 17:43:52;;;;;;;34.63;10.98;;;;;;;;;;10405861;28;20091;-72
2022/02/19 17:48:53;;;;;;;23.23;9.43;;;;;;;;;;10407336;28;20187;-76
2022/02/19 17:53:53;;;;;;;25.42;10.65;;;;;;;;;;10406030;28;20172;-75
2022/02/19 17:58:53;;;;;;;25.52;10.27;;;;;;;;;;10405242;28;20465;-73
2022/02/19 18:03:54;;;;;;;42.92;11.60;;;;;;;;;;10404606;28;20083;-76
2022/02/19 18:08:54;;;;;;;36.28;12.18;;;;;;;;;;10435419;28;20025;-72
2022/02/19 18:13:54;;;;;;;38.10;13.57;;;;;;;;;;10444875;28;20492;-73
2022/02/19 18:18:55;;;;;;;24.75;11.75;;;;;;;;;;10445281;28;20328;-73
2022/02/19 18:23:55;;;;;;;31.95;12.50;;;;;;;;;;10446987;28;20040;-71
2022/02/19 18:28:55;;;;;;;24.88;11.23;;;;;;;;;;10444198;28;20465;-75
2022/02/19 18:33:56;;;;;;;38.57;12.10;;;;;;;;;;10445570;28;20571;-72
2022/02/19 18:38:56;;;;;;;28.48;13.60;;;;;;;;;;10445506;28;20082;-74
2022/02/19 18:43:56;;;;;;;38.83;13.38;;;;;;;;;;10444903;28;20432;-72
2022/02/19 18:48:57;;;;;;;39.28;14.05;;;;;;;;;;10422591;28;20060;-77
2022/02/19 18:53:57;;;;;;;42.85;14.95;;;;;;;;;;10403294;28;20037;-73
2022/02/19 18:58:57;;;;;;;43.03;13.05;;;;;;;;;;10403200;28;20035;-71
2022/02/19 19:03:58;;;;;;;36.33;15.40;;;;;;;;;;10402887;28;20044;-73
2022/02/19 19:08:58;;;;;;;20.47;8.23;;;;;;;;;;10444249;28;20484;-76
2022/02/19 19:13:58;;;;;;;18.67;5.97;;;;;;;;;;10443879;28;20093;-78
2022/02/19 19:18:59;;;;;;;9.53;5.20;;;;;;;;;;10444961;28;20025;-74
2022/02/19 19:23:59;;;;;;;14.07;5.43;;;;;;;;;;10444143;28;20025;-71
2022/02/19 19:28:59;;;;;;;11.90;5.63;;;;;;;;;;10420285;28;20033;-72
2022/02/19 19:34:00;;;;;;;11.38;5.03;;;;;;;;;;10441187;28;20052;-72
2022/02/19 19:39:01;;;;;;;14.05;6.47;;;;;;;;;;10443756;28;20029;-73
2022/02/19 19:44:03;;;;;;;20.30;5.28;;;;;;;;;;10443292;28;20497;-72
2022/02/19 19:49:03;;;;;;;19.52;10.18;;;;;;;;;;10444783;28;20059;-71
2022/02/19 19:54:03;;;;;;;17.23;8.50;;;;;;;;;;10447935;28;20112;-76
2022/02/19 19:59:04;;;;;;;24.30;9.23;;;;;;;;;;10452188;28;20119;-71
2022/02/19 20:04:04;;;;;;;22.50;9.48;;;;;;;;;;10451337;28;20021;-75
2022/02/19 20:09:04;;;;;;;33.47;13.70;;;;;;;;;;10450503;28;20428;-74
2022/02/19 20:14:05;;;;;;;29.07;12.17;;;;;;;;;;10433317;28;20029;-72
2022/02/19 20:19:05;;;;;;;37.50;14.35;;;;;;;;;;10410597;28;20023;-77
2022/02/19 20:24:05;;;;;;;34.80;15.83;;;;;;;;;;10426670;28;20022;-74
2022/02/19 20:29:06;;;;;;;39.07;15.27;;;;;;;;;;10410579;28;20025;-77
2022/02/19 20:34:06;;;;;;;26.80;14.27;;;;;;;;;;10410201;28;20300;-72
2022/02/19 20:39:07;;;;;;;39.28;15.70;;;;;;;;;;10425767;28;20029;-72
2022/02/19 20:44:07;;;;;;;56.40;17.10;;;;;;;;;;10425610;28;20119;-72
2022/02/19 20:49:08;;;;;;;42.53;16.07;;;;;;;;;;10410404;28;20026;-71
2022/02/19 20:54:08;;;;;;;53.80;19.33;;;;;;;;;;10425278;28;20030;-70
2022/02/19 20:59:08;;;;;;;33.88;16.75;;;;;;;;;;10410711;28;20477;-72
2022/02/19 21:04:11;;;;;;;45.72;18.58;;;;;;;;;;10409547;28;20029;-72
2022/02/19 21:09:11;;;;;;;35.72;14.95;;;;;;;;;;10441055;28;20808;-72
2022/02/19 21:14:12;;;;;;;41.17;14.57;;;;;;;;;;10449398;28;20021;-71
2022/02/19 21:19:13;;;;;;;40.53;16.45;;;;;;;;;;10426122;28;20351;-73
2022/02/19 21:24:15;;;;;;;24.13;12.35;;;;;;;;;;10407567;28;20713;-72
2022/02/19 21:29:16;;;;;;;22.20;11.60;;;;;;;;;;10423600;28;20109;-73
2022/02/19 21:34:16;;;;;;;33.33;12.40;;;;;;;;;;10423937;28;20049;-72
2022/02/19 21:39:16;;;;;;;36.27;14.73;;;;;;;;;;10405935;28;20099;-71
2022/02/19 21:44:16;;;;;;;26.70;9.55;;;;;;;;;;10407560;28;20026;-73
2022/02/19 21:49:17;;;;;;;27.35;11.88;;;;;;;;;;10406544;28;20394;-75
2022/02/19 21:54:19;;;;;;;25.40;8.57;;;;;;;;;;10406597;28;20018;-76
2022/02/19 21:59:19;;;;;;;14.88;7.38;;;;;;;;;;10406909;28;20520;-72
2022/02/19 22:04:19;;;;;;;16.47;6.77;;;;;;;;;;10405955;28;20032;-71
2022/02/19 22:09:20;;;;;;;16.33;6.85;;;;;;;;;;10438373;28;20121;-71
2022/02/19 22:14:20;;;;;;;12.87;6.13;;;;;;;;;;10447775;28;20075;-72
2022/02/19 22:19:21;;;;;;;14.02;6.90;;;;;;;;;;10447010;28;20798;-72
2022/02/19 22:24:21;;;;;;;16.00;6.72;;;;;;;;;;10409685;28;20482;-72
2022/02/19 22:29:23;;;;;;;14.60;7.43;;;;;;;;;;10404688;28;20025;-71
2022/02/19 22:34:23;;;;;;;21.15;7.43;;;;;;;;;;10405206;28;20724;-72
2022/02/19 22:39:25;;;;;;;26.10;9.43;;;;;;;;;;10421230;28;20132;-72
2022/02/19 22:44:25;;;;;;;28.63;13.15;;;;;;;;;;10404033;28;20029;-72
2022/02/19 22:49:25;;;;;;;38.42;13.63;;;;;;;;;;10404718;28;20017;-71
2022/02/19 22:54:25;;;;;;;38.88;14.30;;;;;;;;;;10405645;28;20200;-72
2022/02/19 22:59:26;;;;;;;35.90;16.13;;;;;;;;;;10405560;28;20037;-72
2022/02/19 23:09:45;;;;;;;32.78;14.82;;;;;;;;;;10409545;28;20060;-73
2022/02/19 23:14:45;;;;;;;31.85;13.23;;;;;;;;;;10403634;28;20115;-72
2022/02/19 23:19:46;;;;;;;37.03;16.30;;;;;;;;;;10403766;28;20443;-71
2022/02/19 23:24:46;;;;;;;32.80;15.85;;;;;;;;;;10403298;28;20036;-70
2022/02/19 23:29:46;;;;;;;31.87;15.77;;;;;;;;;;10407925;28;20025;-72
2022/02/19 23:34:47;;;;;;;28.90;14.10;;;;;;;;;;10412109;28;20051;-70
2022/02/19 23:39:47;;;;;;;34.90;14.20;;;;;;;;;;10411132;28;20151;-70
2022/02/19 23:44:48;;;;;;;28.93;14.50;;;;;;;;;;10411670;28;20290;-72
2022/02/19 23:49:48;;;;;;;34.53;13.70;;;;;;;;;;10431008;28;20032;-77
2022/02/19 23:54:48;;;;;;;29.63;14.45;;;;;;;;;;10411488;28;20029;-72
2022/02/19 23:59:48;;;;;;;40.93;16.33;;;;;;;;;;10412000;28;20021;-71
